createdAt,value
2023-02-16T00:00:19.671Z,102779.06
2023-02-16T00:02:47.133Z,102786.03
2023-02-16T00:05:25.475Z,102787.56
2023-02-16T00:07:53.676Z,102782.94
2023-02-16T00:10:21.150Z,102788.97
2023-02-16T00:13:07.205Z,102781.91
2023-02-16T00:15:34.963Z,102783.56
2023-02-16T00:18:11.757Z,102786.50
2023-02-16T00:20:38.914Z,102785.66
2023-02-16T00:23:05.945Z,102786.50
2023-02-16T00:25:33.235Z,102784.84
2023-02-16T00:28:02.807Z,102785.66
2023-02-16T00:30:29.925Z,102779.66
2023-02-16T00:32:56.994Z,102779.06
2023-02-16T00:35:24.254Z,102776.34
2023-02-16T00:37:51.336Z,102769.75
2023-02-16T00:40:18.689Z,102776.22
2023-02-16T00:42:47.803Z,102765.84
2023-02-16T00:45:21.351Z,102774.84
2023-02-16T00:47:49.662Z,102771.28
2023-02-16T00:50:18.239Z,102775.06
2023-02-16T00:52:47.759Z,102773.50
2023-02-16T00:55:23.894Z,102772.47
2023-02-16T00:58:07.979Z,102780.00
2023-02-16T01:00:56.219Z,102761.50
2023-02-16T01:03:25.715Z,102771.28
2023-02-16T01:06:12.060Z,102765.84
2023-02-16T01:08:57.555Z,102758.44
2023-02-16T01:11:26.886Z,102764.66
2023-02-16T01:13:56.331Z,102761.38
2023-02-16T01:16:27.387Z,102752.66
2023-02-16T01:18:54.773Z,102745.34
2023-02-16T01:21:22.169Z,102746.41
2023-02-16T01:23:49.563Z,102744.50
2023-02-16T01:26:20.400Z,102749.34
2023-02-16T01:28:48.480Z,102744.38
2023-02-16T01:31:18.084Z,102745.69
2023-02-16T01:33:45.387Z,102731.19
2023-02-16T01:36:24.206Z,102737.31
2023-02-16T01:38:51.525Z,102732.94
2023-02-16T01:41:40.952Z,102738.03
2023-02-16T01:44:32.055Z,102734.13
2023-02-16T01:47:05.587Z,102740.28
2023-02-16T01:49:32.522Z,102739.88
2023-02-16T01:52:27.515Z,102733.28
2023-02-16T01:54:58.522Z,102734.81
2023-02-16T01:58:01.484Z,102728.34
2023-02-16T02:00:33.228Z,102727.41
2023-02-16T02:03:23.594Z,102723.63
2023-02-16T02:05:51.865Z,102719.50
2023-02-16T02:08:30.113Z,102723.72
2023-02-16T02:11:30.484Z,102719.16
2023-02-16T02:14:23.133Z,102720.34
2023-02-16T02:16:59.512Z,102707.84
2023-02-16T02:19:29.164Z,102721.28
2023-02-16T02:22:55.869Z,102718.19
2023-02-16T02:25:41.251Z,102711.81
2023-02-16T02:28:12.640Z,102714.31
2023-02-16T02:30:46.749Z,102721.03
2023-02-16T02:33:51.924Z,102720.19
2023-02-16T02:36:37.821Z,102709.81
2023-02-16T02:39:24.000Z,102716.06
2023-02-16T02:42:19.912Z,102712.19
2023-02-16T02:45:10.174Z,102721.59
2023-02-16T02:47:48.448Z,102720.06
2023-02-16T02:50:37.439Z,102721.56
2023-02-16T02:53:15.693Z,102722.63
2023-02-16T02:56:08.128Z,102721.56
2023-02-16T02:58:56.054Z,102725.09
2023-02-16T03:01:24.744Z,102728.66
2023-02-16T03:03:57.170Z,102728.88
2023-02-16T03:06:28.648Z,102726.16
2023-02-16T03:09:04.632Z,102733.47
2023-02-16T03:11:50.668Z,102726.16
2023-02-16T03:14:22.980Z,102734.75
2023-02-16T03:17:13.097Z,102733.91
2023-02-16T03:20:01.894Z,102722.47
2023-02-16T03:22:48.545Z,102730.59
2023-02-16T03:25:34.549Z,102730.00
2023-02-16T03:28:23.669Z,102732.09
2023-02-16T03:30:52.936Z,102741.44
2023-02-16T03:33:21.312Z,102725.78
2023-02-16T03:35:48.896Z,102738.53
2023-02-16T03:38:16.492Z,102738.75
2023-02-16T03:40:45.573Z,102743.13
2023-02-16T03:43:12.744Z,102749.72
2023-02-16T03:45:42.126Z,102751.97
2023-02-16T03:48:09.489Z,102748.09
2023-02-16T03:50:36.679Z,102739.81
2023-02-16T03:53:07.200Z,102743.34
2023-02-16T03:55:35.359Z,102743.56
2023-02-16T03:58:04.538Z,102740.69
2023-02-16T04:00:32.185Z,102738.06
2023-02-16T04:02:59.381Z,102739.97
2023-02-16T04:05:26.720Z,102736.06
2023-02-16T04:07:54.172Z,102740.44
2023-02-16T04:10:21.711Z,102749.84
2023-02-16T04:12:48.880Z,102743.00
2023-02-16T04:15:18.982Z,102750.53
2023-02-16T04:17:48.385Z,102750.16
2023-02-16T04:20:18.488Z,102751.91
2023-02-16T04:22:45.867Z,102756.84
2023-02-16T04:25:14.168Z,102751.22
2023-02-16T04:27:42.029Z,102750.88
2023-02-16T04:30:12.915Z,102748.63
2023-02-16T04:32:40.311Z,102744.69
2023-02-16T04:35:08.595Z,102747.03
2023-02-16T04:37:36.039Z,102756.41
2023-02-16T04:40:04.196Z,102756.41
2023-02-16T04:42:31.666Z,102751.50
2023-02-16T04:45:01.181Z,102756.66
2023-02-16T04:47:28.756Z,102756.81
2023-02-16T04:49:55.917Z,102752.22
2023-02-16T04:52:23.062Z,102757.28
2023-02-16T04:54:50.235Z,102759.91
2023-02-16T04:57:18.057Z,102759.00
2023-02-16T04:59:45.262Z,102758.28
2023-02-16T05:02:12.359Z,102766.06
2023-02-16T05:04:39.842Z,102763.56
2023-02-16T05:07:06.939Z,102762.72
2023-02-16T05:09:34.332Z,102766.06
2023-02-16T05:12:19.870Z,102763.56
2023-02-16T05:14:47.179Z,102765.59
2023-02-16T05:17:25.607Z,102768.38
2023-02-16T05:19:58.400Z,102767.19
2023-02-16T05:22:26.655Z,102763.63
2023-02-16T05:24:53.914Z,102762.25
2023-02-16T05:27:23.800Z,102772.47
2023-02-16T05:29:51.187Z,102763.16
2023-02-16T05:32:18.578Z,102760.66
2023-02-16T05:34:45.796Z,102771.72
2023-02-16T05:37:15.024Z,102766.50
2023-02-16T05:39:42.489Z,102763.22
2023-02-16T05:42:11.108Z,102767.81
2023-02-16T05:44:38.447Z,102771.34
2023-02-16T05:47:05.591Z,102771.09
2023-02-16T05:49:32.702Z,102773.16
2023-02-16T05:51:59.881Z,102773.06
2023-02-16T05:54:28.109Z,102778.63
2023-02-16T05:56:55.809Z,102771.84
2023-02-16T05:59:23.314Z,102778.63
2023-02-16T06:01:52.100Z,102788.28
2023-02-16T06:04:21.345Z,102783.66
2023-02-16T06:06:49.201Z,102786.50
2023-02-16T06:09:16.595Z,102778.69
2023-02-16T06:11:43.947Z,102779.41
2023-02-16T06:14:17.157Z,102787.75
2023-02-16T06:16:47.737Z,102782.25
2023-02-16T06:19:17.384Z,102785.47
2023-02-16T06:21:44.997Z,102790.59
2023-02-16T06:24:13.491Z,102788.63
2023-02-16T06:26:40.759Z,102795.28
2023-02-16T06:29:08.181Z,102796.34
2023-02-16T06:31:36.777Z,102794.69
2023-02-16T06:34:05.035Z,102805.75
2023-02-16T06:36:32.985Z,102809.94
2023-02-16T06:39:00.119Z,102809.47
2023-02-16T06:41:38.028Z,102813.28
2023-02-16T06:44:07.118Z,102815.41
2023-02-16T06:46:34.579Z,102819.50
2023-02-16T06:49:01.831Z,102818.84
2023-02-16T06:51:29.212Z,102814.16
2023-02-16T06:53:56.604Z,102821.00
2023-02-16T06:56:24.592Z,102821.19
2023-02-16T06:58:51.784Z,102815.81
2023-02-16T07:01:23.409Z,102814.00
2023-02-16T07:03:52.024Z,102823.34
2023-02-16T07:06:20.417Z,102829.69
2023-02-16T07:08:47.734Z,102826.97
2023-02-16T07:11:15.231Z,102820.94
2023-02-16T07:13:42.381Z,102825.25
2023-02-16T07:16:10.465Z,102832.81
2023-02-16T07:18:37.820Z,102830.00
2023-02-16T07:21:06.941Z,102835.75
2023-02-16T07:23:34.754Z,102847.13
2023-02-16T07:26:02.066Z,102828.09
2023-02-16T07:28:29.327Z,102824.19
2023-02-16T07:30:56.795Z,102836.69
2023-02-16T07:33:23.943Z,102841.25
2023-02-16T07:35:51.637Z,102835.38
2023-02-16T07:38:18.705Z,102830.50
2023-02-16T07:40:45.955Z,102832.19
2023-02-16T07:43:13.010Z,102837.34
2023-02-16T07:45:42.476Z,102836.09
2023-02-16T07:48:09.721Z,102829.47
2023-02-16T07:50:37.938Z,102842.03
2023-02-16T07:53:06.909Z,102841.22
2023-02-16T07:55:38.626Z,102842.81
2023-02-16T07:58:05.842Z,102850.47
2023-02-16T08:00:32.882Z,102848.28
2023-02-16T08:03:00.237Z,102846.66
2023-02-16T08:05:27.697Z,102850.25
2023-02-16T08:07:55.196Z,102849.38
2023-02-16T08:10:22.858Z,102845.34
2023-02-16T08:12:50.115Z,102853.09
2023-02-16T08:15:18.194Z,102844.88
2023-02-16T08:17:45.310Z,102852.34
2023-02-16T08:20:13.029Z,102847.50
2023-02-16T08:22:40.178Z,102850.00
2023-02-16T08:25:07.992Z,102845.63
2023-02-16T08:27:35.953Z,102843.41
2023-02-16T08:30:03.695Z,102841.50
2023-02-16T08:32:31.480Z,102855.16
2023-02-16T08:34:58.788Z,102861.16
2023-02-16T08:37:25.876Z,102852.16
2023-02-16T08:39:54.012Z,102842.84
2023-02-16T08:42:21.417Z,102850.50
2023-02-16T08:44:48.577Z,102860.66
2023-02-16T08:47:17.013Z,102856.00
2023-02-16T08:49:44.689Z,102860.56
2023-02-16T08:52:12.616Z,102857.03
2023-02-16T08:54:40.142Z,102855.97
2023-02-16T08:57:07.421Z,102859.25
2023-02-16T08:59:35.076Z,102851.03
2023-02-16T09:02:02.728Z,102860.34
2023-02-16T09:04:29.910Z,102858.19
2023-02-16T09:06:58.637Z,102853.00
2023-02-16T09:09:26.703Z,102850.53
2023-02-16T09:11:54.284Z,102861.75
2023-02-16T09:14:21.756Z,102859.03
2023-02-16T09:16:49.470Z,102859.31
2023-02-16T09:19:19.340Z,102861.47
2023-02-16T09:21:47.760Z,102860.06
2023-02-16T09:24:16.196Z,102859.25
2023-02-16T09:26:44.756Z,102853.50
2023-02-16T09:29:14.044Z,102860.06
2023-02-16T09:31:44.526Z,102859.25
2023-02-16T09:34:19.678Z,102859.25
2023-02-16T09:36:48.017Z,102854.81
2023-02-16T09:39:17.203Z,102870.19
2023-02-16T09:42:31.901Z,102864.63
2023-02-16T09:45:14.074Z,102862.94
2023-02-16T09:47:50.648Z,102861.81
2023-02-16T09:50:52.074Z,102855.28
2023-02-16T09:53:40.999Z,102863.25
2023-02-16T09:56:27.456Z,102855.31
2023-02-16T09:59:27.235Z,102858.75
2023-02-16T10:02:23.506Z,102865.00
2023-02-16T10:05:13.372Z,102859.78
2023-02-16T10:07:53.070Z,102855.84
2023-02-16T10:10:24.500Z,102853.81
2023-02-16T10:13:09.443Z,102856.06
2023-02-16T10:15:40.393Z,102843.34
2023-02-16T10:18:19.184Z,102854.22
2023-02-16T10:20:52.482Z,102846.81
2023-02-16T10:23:38.236Z,102843.88
2023-02-16T10:26:18.627Z,102847.53
2023-02-16T10:28:53.220Z,102836.69
2023-02-16T10:31:20.296Z,102840.22
2023-02-16T10:33:59.542Z,102839.13
2023-02-16T10:37:00.722Z,102841.28
2023-02-16T10:40:01.984Z,102836.25
2023-02-16T10:43:00.936Z,102835.06
2023-02-16T10:45:36.164Z,102821.03
2023-02-16T10:48:05.705Z,102821.41
2023-02-16T10:50:37.945Z,102836.53
2023-02-16T10:53:13.858Z,102818.34
2023-02-16T10:55:41.451Z,102821.63
2023-02-16T10:58:20.721Z,102815.91
2023-02-16T11:00:52.107Z,102813.34
2023-02-16T11:03:24.036Z,102813.66
2023-02-16T11:05:53.499Z,102813.72
2023-02-16T11:08:20.734Z,102815.13
2023-02-16T11:10:51.932Z,102802.97
2023-02-16T11:13:37.644Z,102796.78
2023-02-16T11:16:14.203Z,102801.31
2023-02-16T11:18:45.440Z,102790.09
2023-02-16T11:21:13.453Z,102787.03
2023-02-16T11:23:42.514Z,102778.81
2023-02-16T11:26:12.682Z,102776.06
2023-02-16T11:28:45.357Z,102768.59
2023-02-16T11:31:33.254Z,102772.78
2023-02-16T11:34:06.567Z,102763.25
2023-02-16T11:36:41.970Z,102769.72
2023-02-16T11:39:14.731Z,102770.41
2023-02-16T11:42:10.589Z,102761.19
2023-02-16T11:44:50.990Z,102760.38
2023-02-16T11:47:27.488Z,102747.91
2023-02-16T11:50:31.558Z,102759.53
2023-02-16T11:53:15.957Z,102744.59
2023-02-16T11:55:46.917Z,102744.31
2023-02-16T11:58:29.389Z,102741.25
2023-02-16T12:01:23.988Z,102736.06
2023-02-16T12:04:09.980Z,102733.16
2023-02-16T12:07:08.636Z,102722.66
2023-02-16T12:09:58.895Z,102713.09
2023-02-16T12:12:49.463Z,102713.34
2023-02-16T12:15:33.039Z,102706.56
2023-02-16T12:18:25.922Z,102697.69
2023-02-16T12:21:36.514Z,102693.41
2023-02-16T12:24:45.679Z,102702.50
2023-02-16T12:27:32.161Z,102696.06
2023-02-16T12:30:25.578Z,102697.78
2023-02-16T12:33:06.496Z,102683.97
2023-02-16T12:35:56.318Z,102680.19
2023-02-16T12:38:49.064Z,102677.72
2023-02-16T12:41:42.306Z,102677.88
2023-02-16T12:44:31.085Z,102673.63
2023-02-16T12:47:08.497Z,102668.00
2023-02-16T12:49:47.909Z,102660.22
2023-02-16T12:52:40.558Z,102659.69
2023-02-16T12:55:17.109Z,102660.66
2023-02-16T12:57:53.045Z,102657.91
2023-02-16T13:00:36.940Z,102660.00
2023-02-16T13:03:34.810Z,102658.38
2023-02-16T13:06:25.251Z,102651.50
2023-02-16T13:09:07.455Z,102649.81
2023-02-16T13:11:55.886Z,102643.16
2023-02-16T13:14:28.577Z,102641.47
2023-02-16T13:17:11.999Z,102645.91
2023-02-16T13:19:39.004Z,102651.38
2023-02-16T13:22:08.834Z,102646.69
2023-02-16T13:24:58.540Z,102639.63
2023-02-16T13:27:47.701Z,102636.06
2023-02-16T13:30:55.649Z,102643.78
2023-02-16T13:33:55.514Z,102635.00
2023-02-16T13:36:45.865Z,102637.56
2023-02-16T13:39:43.598Z,102650.78
2023-02-16T13:42:36.842Z,102646.69
2023-02-16T13:45:34.424Z,102642.16
2023-02-16T13:48:02.200Z,102638.75
2023-02-16T13:50:34.316Z,102640.59
2023-02-16T13:53:21.509Z,102635.75
2023-02-16T13:55:52.914Z,102641.47
2023-02-16T13:58:19.968Z,102643.91
2023-02-16T14:00:49.111Z,102634.09
2023-02-16T14:03:21.365Z,102639.06
2023-02-16T14:05:53.120Z,102642.91
2023-02-16T14:08:29.577Z,102643.56
2023-02-16T14:11:08.845Z,102636.41
2023-02-16T14:13:38.728Z,102638.50
2023-02-16T14:16:18.389Z,102642.66
2023-02-16T14:19:16.282Z,102640.44
2023-02-16T14:21:46.386Z,102638.25
2023-02-16T14:24:35.948Z,102653.38
2023-02-16T14:27:10.862Z,102644.75
2023-02-16T14:29:42.824Z,102637.66
2023-02-16T14:32:10.750Z,102650.84
2023-02-16T14:34:43.075Z,102641.22
2023-02-16T14:37:23.785Z,102639.88
2023-02-16T14:40:07.411Z,102639.03
2023-02-16T14:42:36.408Z,102640.94
2023-02-16T14:45:38.008Z,102638.53
2023-02-16T14:48:29.437Z,102638.25
2023-02-16T14:51:15.327Z,102641.59
2023-02-16T14:54:23.974Z,102643.22
2023-02-16T14:57:12.843Z,102645.72
2023-02-16T15:00:02.061Z,102641.63
2023-02-16T15:02:40.819Z,102650.94
2023-02-16T15:05:18.000Z,102649.00
2023-02-16T15:07:51.567Z,102650.63
2023-02-16T15:10:28.954Z,102642.16
2023-02-16T15:12:56.787Z,102640.50
2023-02-16T15:15:45.084Z,102652.00
2023-02-16T15:18:17.530Z,102652.28
2023-02-16T15:20:47.590Z,102656.69
2023-02-16T15:23:34.969Z,102664.66
2023-02-16T15:26:09.383Z,102661.66
2023-02-16T15:28:39.818Z,102662.50
2023-02-16T15:31:18.226Z,102675.63
2023-02-16T15:33:58.035Z,102663.31
2023-02-16T15:36:35.553Z,102670.16
2023-02-16T15:39:07.145Z,102663.84
2023-02-16T15:41:37.373Z,102666.03
2023-02-16T15:44:07.252Z,102667.97
2023-02-16T15:46:43.866Z,102674.25
2023-02-16T15:49:21.551Z,102679.72
2023-02-16T15:51:49.509Z,102675.09
2023-02-16T15:54:19.230Z,102686.56
2023-02-16T15:56:54.438Z,102677.81
2023-02-16T15:59:44.974Z,102684.91
2023-02-16T16:02:14.471Z,102681.91
2023-02-16T16:04:56.021Z,102690.66
2023-02-16T16:07:29.516Z,102692.28
2023-02-16T16:09:58.292Z,102689.53
2023-02-16T16:12:27.306Z,102694.75
2023-02-16T16:14:56.647Z,102698.03
2023-02-16T16:17:30.491Z,102701.28
2023-02-16T16:20:17.494Z,102693.34
2023-02-16T16:22:45.242Z,102696.59
2023-02-16T16:25:52.989Z,102697.13
2023-02-16T16:28:26.579Z,102698.47
2023-02-16T16:31:13.984Z,102704.72
2023-02-16T16:34:02.297Z,102704.66
2023-02-16T16:36:56.339Z,102710.91
2023-02-16T16:39:35.830Z,102708.66
2023-02-16T16:42:27.346Z,102708.38
2023-02-16T16:45:05.519Z,102707.75
2023-02-16T16:47:39.608Z,102703.88
2023-02-16T16:50:15.555Z,102699.22
2023-02-16T16:52:48.889Z,102702.50
2023-02-16T16:55:24.446Z,102708.25
2023-02-16T16:58:00.459Z,102707.72
2023-02-16T17:00:34.809Z,102704.75
2023-02-16T17:03:08.099Z,102708.53
2023-02-16T17:05:38.467Z,102709.91
2023-02-16T17:08:06.294Z,102709.06
2023-02-16T17:10:35.428Z,102704.13
2023-02-16T17:13:03.250Z,102701.38
2023-02-16T17:15:43.126Z,102710.41
2023-02-16T17:18:17.131Z,102710.97
2023-02-16T17:20:45.024Z,102718.59
2023-02-16T17:23:14.432Z,102713.09
2023-02-16T17:25:42.628Z,102715.25
2023-02-16T17:28:11.261Z,102718.53
2023-02-16T17:30:38.820Z,102720.94
2023-02-16T17:33:07.396Z,102719.03
2023-02-16T17:35:36.923Z,102727.75
2023-02-16T17:38:09.566Z,102725.00
2023-02-16T17:40:37.239Z,102722.75
2023-02-16T17:43:14.149Z,102732.00
2023-02-16T17:45:42.584Z,102729.53
2023-02-16T17:48:22.473Z,102730.31
2023-02-16T17:50:51.455Z,102727.00
2023-02-16T17:53:23.213Z,102732.41
2023-02-16T17:55:53.376Z,102735.09
2023-02-16T17:58:22.087Z,102735.03
2023-02-16T18:00:49.452Z,102737.47
2023-02-16T18:03:16.694Z,102739.06
2023-02-16T18:05:44.050Z,102740.09
2023-02-16T18:08:12.759Z,102738.69
2023-02-16T18:10:44.063Z,102743.41
2023-02-16T18:13:11.989Z,102735.22
2023-02-16T18:15:42.496Z,102732.50
2023-02-16T18:18:09.719Z,102742.34
2023-02-16T18:20:36.866Z,102742.66
2023-02-16T18:23:04.814Z,102742.09
2023-02-16T18:25:32.811Z,102743.19
2023-02-16T18:27:59.999Z,102743.13
2023-02-16T18:30:27.255Z,102741.72
2023-02-16T18:32:54.403Z,102735.41
2023-02-16T18:35:21.518Z,102746.00
2023-02-16T18:37:49.007Z,102742.13
2023-02-16T18:40:29.065Z,102746.19
2023-02-16T18:42:58.582Z,102745.66
2023-02-16T18:45:26.013Z,102737.66
2023-02-16T18:47:53.354Z,102740.59
2023-02-16T18:50:20.498Z,102747.63
2023-02-16T18:52:47.775Z,102737.25
2023-02-16T18:55:15.945Z,102735.59
2023-02-16T18:57:43.240Z,102742.13
2023-02-16T19:00:12.221Z,102738.31
2023-02-16T19:02:41.091Z,102738.00
2023-02-16T19:05:10.590Z,102744.25
2023-02-16T19:07:38.212Z,102741.31
2023-02-16T19:10:10.437Z,102749.63
2023-02-16T19:12:39.422Z,102742.78
2023-02-16T19:15:08.066Z,102746.59
2023-02-16T19:17:35.710Z,102744.13
2023-02-16T19:20:02.737Z,102743.50
2023-02-16T19:22:29.863Z,102746.47
2023-02-16T19:24:56.861Z,102742.84
2023-02-16T19:27:23.841Z,102750.22
2023-02-16T19:29:50.895Z,102751.81
2023-02-16T19:32:20.253Z,102755.59
2023-02-16T19:34:47.456Z,102751.47
2023-02-16T19:37:15.250Z,102763.19
2023-02-16T19:39:42.324Z,102762.28
2023-02-16T19:42:09.596Z,102763.38
2023-02-16T19:44:36.920Z,102764.19
2023-02-16T19:47:04.122Z,102767.97
2023-02-16T19:49:31.098Z,102773.91
2023-02-16T19:52:02.386Z,102770.31
2023-02-16T19:54:32.628Z,102772.47
2023-02-16T19:56:59.843Z,102772.16
2023-02-16T19:59:27.159Z,102780.00
2023-02-16T20:01:54.413Z,102776.13
2023-02-16T20:04:21.479Z,102774.97
2023-02-16T20:06:49.317Z,102774.41
2023-02-16T20:09:18.550Z,102770.53
2023-02-16T20:11:45.721Z,102768.63
2023-02-16T20:14:13.347Z,102770.28
2023-02-16T20:16:41.367Z,102767.22
2023-02-16T20:19:08.621Z,102770.72
2023-02-16T20:21:35.658Z,102768.22
2023-02-16T20:24:05.401Z,102768.16
2023-02-16T20:26:39.316Z,102770.53
2023-02-16T20:29:08.534Z,102770.53
2023-02-16T20:31:42.729Z,102767.81
2023-02-16T20:34:10.335Z,102772.69
2023-02-16T20:36:37.940Z,102771.78
2023-02-16T20:39:07.139Z,102773.56
2023-02-16T20:41:34.637Z,102775.47
2023-02-16T20:44:03.224Z,102775.47
2023-02-16T20:46:30.739Z,102777.97
2023-02-16T20:48:57.948Z,102774.66
2023-02-16T20:51:25.815Z,102778.44
2023-02-16T20:53:53.026Z,102783.91
2023-02-16T20:56:24.953Z,102781.91
2023-02-16T20:58:56.344Z,102778.63
2023-02-16T21:01:39.121Z,102775.31
2023-02-16T21:04:08.166Z,102773.66
2023-02-16T21:06:37.211Z,102765.75
2023-02-16T21:09:07.002Z,102763.50
2023-02-16T21:11:35.531Z,102765.91
2023-02-16T21:14:04.168Z,102768.38
2023-02-16T21:16:31.940Z,102780.56
2023-02-16T21:18:59.499Z,102768.56
2023-02-16T21:21:27.158Z,102766.91
2023-02-16T21:23:55.650Z,102771.75
2023-02-16T21:26:25.192Z,102776.59
2023-02-16T21:28:53.771Z,102770.34
2023-02-16T21:31:24.095Z,102765.97
2023-02-16T21:33:52.656Z,102767.28
2023-02-16T21:36:23.321Z,102764.56
2023-02-16T21:38:50.792Z,102766.69
2023-02-16T21:41:27.798Z,102763.44
2023-02-16T21:44:00.925Z,102760.22
2023-02-16T21:46:31.908Z,102763.00
2023-02-16T21:48:59.946Z,102772.56
2023-02-16T21:51:30.281Z,102770.94
2023-02-16T21:53:58.252Z,102769.03
2023-02-16T21:56:36.246Z,102762.53
2023-02-16T21:59:05.702Z,102765.25
2023-02-16T22:01:36.689Z,102767.41
2023-02-16T22:04:04.905Z,102758.66
2023-02-16T22:06:39.993Z,102764.09
2023-02-16T22:09:10.730Z,102763.75
2023-02-16T22:11:38.826Z,102763.97
2023-02-16T22:14:06.722Z,102762.84
2023-02-16T22:16:36.377Z,102762.28
2023-02-16T22:19:10.872Z,102760.59
2023-02-16T22:21:41.974Z,102760.28
2023-02-16T22:24:12.780Z,102765.38
2023-02-16T22:26:40.689Z,102758.19
2023-02-16T22:29:08.858Z,102764.56
2023-02-16T22:31:37.284Z,102759.53
2023-02-16T22:34:07.799Z,102760.25
2023-02-16T22:36:36.667Z,102757.28
2023-02-16T22:39:04.613Z,102756.94
2023-02-16T22:41:31.639Z,102747.66
2023-02-16T22:44:02.350Z,102745.41
2023-02-16T22:46:30.108Z,102745.63
2023-02-16T22:48:58.878Z,102742.34
2023-02-16T22:51:30.714Z,102739.53
2023-02-16T22:53:59.191Z,102738.94
2023-02-16T23:08:53.432Z,102733.00
2023-02-16T23:11:20.772Z,102735.09
2023-02-16T23:13:48.146Z,102731.56
2023-02-16T23:16:17.732Z,102732.88
2023-02-16T23:18:45.446Z,102729.81
2023-02-16T23:21:18.412Z,102728.78
2023-02-16T23:23:46.764Z,102720.63
2023-02-16T23:26:14.421Z,102729.34
2023-02-16T23:28:43.151Z,102728.19
2023-02-16T23:31:12.742Z,102725.94
2023-02-16T23:33:39.910Z,102724.78
2023-02-16T23:36:07.512Z,102732.13
2023-02-16T23:38:34.621Z,102726.44
2023-02-16T23:41:07.411Z,102722.06
2023-02-16T23:43:35.551Z,102719.59
2023-02-16T23:46:03.262Z,102716.63
2023-02-16T23:48:31.052Z,102717.47
2023-02-16T23:50:58.728Z,102719.59
2023-02-16T23:53:27.622Z,102721.72
2023-02-16T23:56:05.187Z,102720.91
2023-02-16T23:58:41.274Z,102712.16
